createdAt,value
2018-05-04T00:01:28.623Z,9.95
2018-05-04T00:03:56.016Z,9.88
2018-05-04T00:06:23.415Z,9.85
2018-05-04T00:08:50.799Z,9.86
2018-05-04T00:11:18.175Z,9.92
2018-05-04T00:13:45.576Z,9.90
2018-05-04T00:16:12.955Z,9.92
2018-05-04T00:18:40.356Z,9.90
2018-05-04T00:21:07.735Z,9.87
2018-05-04T00:23:35.125Z,9.91
2018-05-04T00:26:02.535Z,9.88
2018-05-04T00:28:29.918Z,9.92
2018-05-04T00:30:57.315Z,9.84
2018-05-04T00:33:24.694Z,9.88
2018-05-04T00:35:52.089Z,10.02
2018-05-04T00:38:19.478Z,10.02
2018-05-04T00:40:46.871Z,10.06
2018-05-04T00:43:14.264Z,9.94
2018-05-04T00:45:41.652Z,9.95
2018-05-04T00:48:09.027Z,9.98
2018-05-04T00:50:36.418Z,10.02
2018-05-04T00:53:03.819Z,10.06
2018-05-04T00:55:31.215Z,10.02
2018-05-04T00:57:58.594Z,9.96
2018-05-04T01:00:25.991Z,9.90
2018-05-04T01:02:53.371Z,9.79
2018-05-04T01:05:20.755Z,9.71
2018-05-04T01:07:48.143Z,9.61
2018-05-04T01:10:15.527Z,9.51
2018-05-04T01:12:42.926Z,9.42
2018-05-04T01:15:10.308Z,9.31
2018-05-04T01:17:37.703Z,9.29
2018-05-04T01:20:05.093Z,9.32
2018-05-04T01:22:32.481Z,9.24
2018-05-04T01:24:59.867Z,9.21
2018-05-04T01:27:27.254Z,9.25
2018-05-04T01:29:54.650Z,9.23
2018-05-04T01:32:22.048Z,9.20
2018-05-04T01:34:49.420Z,9.20
2018-05-04T01:37:16.819Z,9.16
2018-05-04T01:39:44.200Z,9.15
2018-05-04T01:42:11.587Z,9.19
2018-05-04T01:44:39.012Z,9.16
2018-05-04T01:47:06.387Z,9.15
2018-05-04T01:49:33.893Z,9.08
2018-05-04T01:52:01.275Z,9.08
2018-05-04T01:54:28.815Z,9.09
2018-05-04T01:56:56.202Z,9.07
2018-05-04T01:59:23.731Z,9.09
2018-05-04T02:01:51.125Z,9.07
2018-05-04T02:04:18.634Z,9.08
2018-05-04T02:06:46.019Z,9.04
2018-05-04T02:09:13.483Z,9.01
2018-05-04T02:11:40.866Z,8.96
2018-05-04T02:14:08.258Z,8.95
2018-05-04T02:16:35.642Z,8.90
2018-05-04T02:19:03.047Z,8.84
2018-05-04T02:21:30.443Z,8.75
2018-05-04T02:23:57.829Z,8.71
2018-05-04T02:26:25.222Z,8.71
2018-05-04T02:28:52.606Z,8.67
2018-05-04T02:31:19.991Z,8.62
2018-05-04T02:33:47.375Z,8.56
2018-05-04T02:36:15.182Z,8.40
2018-05-04T02:38:42.562Z,8.39
2018-05-04T02:41:09.942Z,8.42
2018-05-04T02:43:37.339Z,8.41
2018-05-04T02:46:04.726Z,8.40
2018-05-04T02:48:32.123Z,8.42
2018-05-04T02:50:59.504Z,8.39
2018-05-04T02:53:26.894Z,8.39
2018-05-04T02:55:54.283Z,8.39
2018-05-04T02:58:21.666Z,8.38
2018-05-04T03:00:49.055Z,8.38
2018-05-04T03:03:16.480Z,8.36
2018-05-04T03:05:43.847Z,8.35
2018-05-04T03:08:11.239Z,8.31
2018-05-04T03:10:38.633Z,8.28
2018-05-04T03:13:06.086Z,8.26
2018-05-04T03:15:33.403Z,8.21
2018-05-04T03:18:00.797Z,8.16
2018-05-04T03:20:28.222Z,8.10
2018-05-04T03:22:55.602Z,8.03
2018-05-04T03:25:22.989Z,7.99
2018-05-04T03:27:50.390Z,7.93
2018-05-04T03:30:17.767Z,7.86
2018-05-04T03:32:45.151Z,7.85
2018-05-04T03:35:12.566Z,7.78
2018-05-04T03:37:39.955Z,7.76
2018-05-04T03:40:07.335Z,7.71
2018-05-04T03:42:34.755Z,7.70
2018-05-04T03:45:02.140Z,7.67
2018-05-04T03:47:29.536Z,7.64
2018-05-04T03:49:56.939Z,7.64
2018-05-04T03:52:24.323Z,7.63
2018-05-04T03:54:51.698Z,7.61
2018-05-04T03:57:30.803Z,7.61
2018-05-04T04:00:09.903Z,7.60
2018-05-04T04:02:48.927Z,7.54
2018-05-04T04:05:16.307Z,7.50
2018-05-04T04:07:43.694Z,7.45
2018-05-04T04:10:11.099Z,7.42
2018-05-04T04:12:38.506Z,7.43
2018-05-04T04:15:05.866Z,7.50
2018-05-04T04:17:33.263Z,7.52
2018-05-04T04:20:00.664Z,7.52
2018-05-04T04:22:28.047Z,7.55
2018-05-04T04:24:55.651Z,7.58
2018-05-04T04:27:23.879Z,7.59
2018-05-04T04:29:51.267Z,7.60
2018-05-04T04:32:18.663Z,7.58
2018-05-04T04:34:46.052Z,7.66
2018-05-04T04:37:13.434Z,7.70
2018-05-04T04:39:40.864Z,7.68
2018-05-04T04:42:08.237Z,7.65
2018-05-04T04:44:35.627Z,7.60
2018-05-04T04:47:03.126Z,7.61
2018-05-04T04:49:30.515Z,7.72
2018-05-04T04:51:57.926Z,7.77
2018-05-04T04:54:25.759Z,7.84
2018-05-04T04:56:53.136Z,7.92
2018-05-04T04:59:20.531Z,8.00
2018-05-04T05:01:47.963Z,8.08
2018-05-04T05:04:15.332Z,8.15
2018-05-04T05:06:42.711Z,8.21
2018-05-04T05:09:10.118Z,8.29
2018-05-04T05:11:37.494Z,8.36
2018-05-04T05:14:04.874Z,8.41
2018-05-04T05:16:32.465Z,8.45
2018-05-04T05:18:59.891Z,8.49
2018-05-04T05:21:27.294Z,8.51
2018-05-04T05:23:54.675Z,8.53
2018-05-04T05:26:22.059Z,8.59
2018-05-04T05:28:49.468Z,8.65
2018-05-04T05:31:16.856Z,8.73
2018-05-04T05:33:44.235Z,8.84
2018-05-04T05:36:11.637Z,8.87
2018-05-04T05:38:39.015Z,8.92
2018-05-04T05:41:06.399Z,8.99
2018-05-04T05:43:33.815Z,9.07
2018-05-04T05:46:01.198Z,9.12
2018-05-04T05:48:28.588Z,9.25
2018-05-04T05:50:56.003Z,9.32
2018-05-04T05:53:23.391Z,9.36
2018-05-04T05:55:50.776Z,9.44
2018-05-04T05:58:18.174Z,9.50
2018-05-04T06:00:45.593Z,9.54
2018-05-04T06:03:13.055Z,9.64
2018-05-04T06:05:40.443Z,9.67
2018-05-04T06:08:07.827Z,9.82
2018-05-04T06:10:35.208Z,9.91
2018-05-04T06:13:02.612Z,9.96
2018-05-04T06:15:29.995Z,10.04
2018-05-04T06:17:57.382Z,10.13
2018-05-04T06:20:24.783Z,10.24
2018-05-04T06:22:52.175Z,10.30
2018-05-04T06:25:19.554Z,10.39
2018-05-04T06:27:46.954Z,10.44
2018-05-04T06:30:14.349Z,10.53
2018-05-04T06:32:41.823Z,10.60
2018-05-04T06:35:09.210Z,10.70
2018-05-04T06:37:36.594Z,10.75
2018-05-04T06:40:03.989Z,10.81
2018-05-04T06:42:31.393Z,10.85
2018-05-04T06:44:58.788Z,10.94
2018-05-04T06:47:26.176Z,11.01
2018-05-04T06:49:53.567Z,11.11
2018-05-04T06:52:20.951Z,11.18
2018-05-04T06:54:48.354Z,11.23
2018-05-04T06:57:15.746Z,11.32
2018-05-04T06:59:43.135Z,11.37
2018-05-04T07:02:10.531Z,11.42
2018-05-04T07:04:37.935Z,11.53
2018-05-04T07:07:05.339Z,11.57
2018-05-04T07:09:32.738Z,11.66
2018-05-04T07:12:00.194Z,11.73
2018-05-04T07:14:27.583Z,11.91
2018-05-04T07:16:54.971Z,11.96
2018-05-04T07:19:22.403Z,12.17
2018-05-04T07:21:49.791Z,12.29
2018-05-04T07:24:17.170Z,12.45
2018-05-04T07:26:44.570Z,12.54
2018-05-04T07:29:11.959Z,12.62
2018-05-04T07:31:39.522Z,12.68
2018-05-04T07:34:06.899Z,12.80
2018-05-04T07:36:34.284Z,12.83
2018-05-04T07:39:01.771Z,12.87
2018-05-04T07:41:29.071Z,13.11
2018-05-04T07:43:56.466Z,13.19
2018-05-04T07:46:23.858Z,13.39
2018-05-04T07:48:51.242Z,13.55
2018-05-04T07:51:18.635Z,13.72
2018-05-04T07:53:46.023Z,13.88
2018-05-04T07:56:13.418Z,13.95
2018-05-04T07:58:40.811Z,14.08
2018-05-04T08:01:08.194Z,14.26
2018-05-04T08:03:35.588Z,14.42
2018-05-04T08:06:02.978Z,14.46
2018-05-04T08:08:30.393Z,14.62
2018-05-04T08:10:57.782Z,14.76
2018-05-04T08:13:25.166Z,14.75
2018-05-04T08:15:52.562Z,14.94
2018-05-04T08:18:19.958Z,15.06
2018-05-04T08:20:47.454Z,15.17
2018-05-04T08:23:14.846Z,15.16
2018-05-04T08:25:42.231Z,15.20
2018-05-04T08:28:09.623Z,15.32
2018-05-04T08:30:37.120Z,15.40
2018-05-04T08:33:04.515Z,15.58
2018-05-04T08:35:32.007Z,15.72
2018-05-04T08:37:59.335Z,15.80
2018-05-04T08:40:26.686Z,15.90
2018-05-04T08:42:54.087Z,16.05
2018-05-04T08:45:21.490Z,16.13
2018-05-04T08:47:48.875Z,16.39
2018-05-04T08:50:16.259Z,16.62
2018-05-04T08:52:43.790Z,16.74
2018-05-04T08:55:11.171Z,16.88
2018-05-04T08:57:38.917Z,17.15
2018-05-04T09:00:06.291Z,17.26
2018-05-04T09:02:33.678Z,17.38
2018-05-04T09:05:01.071Z,17.58
2018-05-04T09:07:28.462Z,17.83
2018-05-04T09:09:55.872Z,17.94
2018-05-04T09:12:23.250Z,18.14
2018-05-04T09:14:50.631Z,18.30
2018-05-04T09:17:18.028Z,17.98
2018-05-04T09:19:45.527Z,18.11
2018-05-04T09:22:13.270Z,18.23
2018-05-04T09:24:40.646Z,18.57
2018-05-04T09:27:08.023Z,18.80
2018-05-04T09:29:35.407Z,19.17
2018-05-04T09:32:02.786Z,19.48
2018-05-04T09:34:30.175Z,19.82
2018-05-04T09:36:57.552Z,20.16
2018-05-04T09:39:24.936Z,20.47
2018-05-04T09:41:52.311Z,20.73
2018-05-04T09:44:19.691Z,20.62
2018-05-04T09:46:47.079Z,20.64
2018-05-04T09:49:14.455Z,20.64
2018-05-04T09:51:41.847Z,21.24
2018-05-04T09:54:09.235Z,21.48
2018-05-04T09:56:36.682Z,21.98
2018-05-04T09:59:04.062Z,22.08
2018-05-04T10:01:31.435Z,22.86
2018-05-04T10:03:59.019Z,23.09
2018-05-04T10:06:26.407Z,23.25
2018-05-04T10:08:53.783Z,22.82
2018-05-04T10:11:21.217Z,22.56
2018-05-04T10:13:48.596Z,22.30
2018-05-04T10:16:15.979Z,22.37
2018-05-04T10:18:43.367Z,22.69
2018-05-04T10:21:10.743Z,22.43
2018-05-04T10:23:38.143Z,22.65
2018-05-04T10:26:05.527Z,22.63
2018-05-04T10:28:32.907Z,22.89
2018-05-04T10:31:00.307Z,23.39
2018-05-04T10:33:27.683Z,23.94
2018-05-04T10:35:55.104Z,23.68
2018-05-04T10:38:22.490Z,23.28
2018-05-04T10:40:49.854Z,23.32
2018-05-04T10:43:17.235Z,23.33
2018-05-04T10:45:44.660Z,23.43
2018-05-04T10:48:12.060Z,23.50
2018-05-04T10:50:39.461Z,23.99
2018-05-04T10:53:06.871Z,23.55
2018-05-04T10:55:34.256Z,23.59
2018-05-04T10:58:01.642Z,23.65
2018-05-04T11:00:29.042Z,23.46
2018-05-04T11:02:56.427Z,23.88
2018-05-04T11:05:24.256Z,24.41
2018-05-04T11:07:51.631Z,24.33
2018-05-04T11:10:19.011Z,24.47
2018-05-04T11:12:46.416Z,24.34
2018-05-04T11:15:13.795Z,24.57
2018-05-04T11:17:41.231Z,25.42
2018-05-04T11:20:08.607Z,25.24
2018-05-04T11:22:35.999Z,24.82
2018-05-04T11:25:03.387Z,24.49
2018-05-04T11:27:30.762Z,25.18
2018-05-04T11:29:58.162Z,25.79
2018-05-04T11:32:25.555Z,26.05
2018-05-04T11:34:52.924Z,26.20
2018-05-04T11:37:20.326Z,25.40
2018-05-04T11:39:47.713Z,25.06
2018-05-04T11:42:15.106Z,24.47
2018-05-04T11:44:42.479Z,24.61
2018-05-04T11:47:09.854Z,24.45
2018-05-04T11:49:37.273Z,24.44
2018-05-04T11:52:04.643Z,24.89
2018-05-04T11:54:32.118Z,25.41
2018-05-04T11:56:59.446Z,25.23
2018-05-04T11:59:26.839Z,25.83
2018-05-04T12:01:54.252Z,26.08
2018-05-04T12:04:21.628Z,25.78
2018-05-04T12:06:49.027Z,25.58
2018-05-04T12:09:16.416Z,25.38
2018-05-04T12:11:43.798Z,24.45
2018-05-04T12:14:11.179Z,24.53
2018-05-04T12:16:38.608Z,24.92
2018-05-04T12:19:05.964Z,24.72
2018-05-04T12:21:33.351Z,24.53
2018-05-04T12:24:00.730Z,25.07
2018-05-04T12:26:28.111Z,25.79
2018-05-04T12:28:55.490Z,25.06
2018-05-04T12:31:22.885Z,25.26
2018-05-04T12:33:50.262Z,24.82
2018-05-04T12:36:17.639Z,24.90
2018-05-04T12:38:45.027Z,24.57
2018-05-04T12:41:12.568Z,24.56
2018-05-04T12:43:39.947Z,24.39
2018-05-04T12:46:07.327Z,23.88
2018-05-04T12:48:34.710Z,23.70
2018-05-04T12:51:02.106Z,23.96
2018-05-04T12:53:29.503Z,24.83
2018-05-04T12:55:56.892Z,25.02
2018-05-04T12:58:25.313Z,24.91
2018-05-04T13:00:52.767Z,24.57
2018-05-04T13:03:20.167Z,24.89
2018-05-04T13:05:47.546Z,24.72
2018-05-04T13:08:14.963Z,24.85
2018-05-04T13:10:42.347Z,24.82
2018-05-04T13:13:09.753Z,24.00
2018-05-04T13:15:37.157Z,23.93
2018-05-04T13:18:04.538Z,24.27
2018-05-04T13:20:31.953Z,24.39
2018-05-04T13:22:59.332Z,24.24
2018-05-04T13:25:26.783Z,24.20
2018-05-04T13:27:54.166Z,24.17
2018-05-04T13:30:21.565Z,23.71
2018-05-04T13:32:48.955Z,23.60
2018-05-04T13:35:16.338Z,23.66
2018-05-04T13:37:43.732Z,23.69
2018-05-04T13:40:11.124Z,23.47
2018-05-04T13:42:38.506Z,23.05
2018-05-04T13:45:05.904Z,22.81
2018-05-04T13:47:33.295Z,23.26
2018-05-04T13:50:01.031Z,23.05
2018-05-04T13:52:28.419Z,23.04
2018-05-04T13:54:55.806Z,22.80
2018-05-04T13:57:23.228Z,22.79
2018-05-04T13:59:50.611Z,22.75
2018-05-04T14:02:18.011Z,22.60
2018-05-04T14:04:45.402Z,22.46
2018-05-04T14:07:12.783Z,22.56
2018-05-04T14:09:40.231Z,22.64
2018-05-04T14:12:07.618Z,22.73
2018-05-04T14:14:35.034Z,22.59
2018-05-04T14:17:02.443Z,22.70
2018-05-04T14:19:29.840Z,22.53
2018-05-04T14:21:57.246Z,22.42
2018-05-04T14:24:24.630Z,22.15
2018-05-04T14:26:52.115Z,22.02
2018-05-04T14:29:19.507Z,22.22
2018-05-04T14:31:46.902Z,22.51
2018-05-04T14:34:14.469Z,22.58
2018-05-04T14:36:41.935Z,22.34
2018-05-04T14:39:09.403Z,22.23
2018-05-04T14:41:36.876Z,22.18
2018-05-04T14:44:04.268Z,22.31
2018-05-04T14:46:31.663Z,22.05
2018-05-04T14:48:59.044Z,21.91
2018-05-04T14:51:26.737Z,21.79
2018-05-04T14:53:54.124Z,22.06
2018-05-04T14:56:21.507Z,22.11
2018-05-04T14:58:48.938Z,21.94
2018-05-04T15:01:16.333Z,21.78
2018-05-04T15:03:43.811Z,21.69
2018-05-04T15:06:11.227Z,21.57
2018-05-04T15:08:38.611Z,21.32
2018-05-04T15:11:06.011Z,21.48
2018-05-04T15:13:33.399Z,21.45
2018-05-04T15:16:00.929Z,21.66
2018-05-04T15:18:28.265Z,21.85
2018-05-04T15:20:55.650Z,21.83
2018-05-04T15:23:23.150Z,21.78
2018-05-04T15:25:50.540Z,21.85
2018-05-04T15:28:17.996Z,21.88
2018-05-04T15:30:45.380Z,21.52
2018-05-04T15:33:12.762Z,21.20
2018-05-04T15:35:40.159Z,21.08
2018-05-04T15:38:07.540Z,20.99
2018-05-04T15:40:35.001Z,21.09
2018-05-04T15:43:02.338Z,21.09
2018-05-04T15:45:29.715Z,20.92
2018-05-04T15:47:57.102Z,21.03
2018-05-04T15:50:30.024Z,21.01
2018-05-04T15:52:57.427Z,21.04
2018-05-04T15:55:24.836Z,21.06
2018-05-04T15:57:52.236Z,21.06
2018-05-04T16:00:19.728Z,20.99
2018-05-04T16:02:47.111Z,20.95
2018-05-04T16:05:14.499Z,21.05
2018-05-04T16:07:41.884Z,20.83
2018-05-04T16:10:09.299Z,20.88
2018-05-04T16:12:36.680Z,20.66
2018-05-04T16:15:04.067Z,20.75
2018-05-04T16:17:31.455Z,20.66
2018-05-04T16:19:58.948Z,20.71
2018-05-04T16:22:26.411Z,20.49
2018-05-04T16:24:53.786Z,20.41
2018-05-04T16:27:21.170Z,20.43
2018-05-04T16:29:48.579Z,20.52
2018-05-04T16:32:16.023Z,20.59
2018-05-04T16:34:43.416Z,20.48
2018-05-04T16:37:10.875Z,20.53
2018-05-04T16:39:38.258Z,20.66
2018-05-04T16:42:05.656Z,20.59
2018-05-04T16:44:33.099Z,20.60
2018-05-04T16:47:06.243Z,20.65
2018-05-04T16:49:33.618Z,20.61
2018-05-04T16:52:01.002Z,20.69
2018-05-04T16:54:28.379Z,20.77
2018-05-04T16:56:55.766Z,20.80
2018-05-04T16:59:23.167Z,20.61
2018-05-04T17:01:50.627Z,20.44
2018-05-04T17:04:18.011Z,20.46
2018-05-04T17:06:45.403Z,20.41
2018-05-04T17:09:12.866Z,20.31
2018-05-04T17:11:40.251Z,20.29
2018-05-04T17:14:07.630Z,20.33
2018-05-04T17:16:35.012Z,20.12
2018-05-04T17:19:02.411Z,20.18
2018-05-04T17:21:29.787Z,19.98
2018-05-04T17:23:57.163Z,19.89
2018-05-04T17:26:24.839Z,19.89
2018-05-04T17:28:52.236Z,19.86
2018-05-04T17:31:19.624Z,19.77
2018-05-04T17:33:47.032Z,19.75
2018-05-04T17:36:14.427Z,19.76
2018-05-04T17:38:41.815Z,19.73
2018-05-04T17:41:09.219Z,19.71
2018-05-04T17:43:36.612Z,19.66
2018-05-04T17:46:04.000Z,19.70
2018-05-04T17:48:31.403Z,19.68
2018-05-04T17:50:58.809Z,19.52
2018-05-04T17:53:26.195Z,19.49
2018-05-04T17:55:54.007Z,19.46
2018-05-04T17:58:21.409Z,19.45
2018-05-04T18:00:48.811Z,19.39
2018-05-04T18:03:16.223Z,19.17
2018-05-04T18:05:43.620Z,19.15
2018-05-04T18:08:11.007Z,19.15
2018-05-04T18:10:38.413Z,19.15
2018-05-04T18:13:05.791Z,19.02
2018-05-04T18:15:33.183Z,19.00
2018-05-04T18:18:00.575Z,18.88
2018-05-04T18:20:27.959Z,18.87
2018-05-04T18:22:55.349Z,18.76
2018-05-04T18:25:22.746Z,18.69
2018-05-04T18:27:50.144Z,18.67
2018-05-04T18:30:17.527Z,18.50
2018-05-04T18:32:44.923Z,18.46
2018-05-04T18:35:12.314Z,18.43
2018-05-04T18:37:39.702Z,18.26
2018-05-04T18:40:07.095Z,18.14
2018-05-04T18:42:34.483Z,18.05
2018-05-04T18:45:01.932Z,18.03
2018-05-04T18:47:29.306Z,18.01
2018-05-04T18:49:56.768Z,17.93
2018-05-04T18:52:24.168Z,17.76
2018-05-04T18:54:51.635Z,17.80
2018-05-04T18:57:24.820Z,17.67
2018-05-04T18:59:52.571Z,17.58
2018-05-04T19:05:24.063Z,17.36
2018-05-04T19:07:51.487Z,17.31
2018-05-04T19:10:18.878Z,17.29
2018-05-04T19:12:46.331Z,17.29
2018-05-04T19:15:13.742Z,17.10
2018-05-04T19:17:41.139Z,17.05
2018-05-04T19:20:08.547Z,17.00
2018-05-04T19:22:35.936Z,17.01
2018-05-04T19:25:03.815Z,16.93
2018-05-04T19:27:31.219Z,16.90
2018-05-04T19:29:58.600Z,16.86
2018-05-04T19:32:25.994Z,16.81
2018-05-04T19:34:53.378Z,16.76
2018-05-04T19:37:20.774Z,16.69
2018-05-04T19:39:48.174Z,16.77
2018-05-04T19:42:15.582Z,16.66
2018-05-04T19:44:42.982Z,16.64
2018-05-04T19:47:10.416Z,16.59
2018-05-04T19:49:37.832Z,16.62
2018-05-04T19:52:05.232Z,16.51
2018-05-04T19:54:32.615Z,16.48
2018-05-04T19:57:00.035Z,16.36
2018-05-04T19:59:27.420Z,16.35
2018-05-04T20:01:54.799Z,16.33
2018-05-04T20:04:22.194Z,16.34
2018-05-04T20:06:49.583Z,16.27
2018-05-04T20:09:16.990Z,16.26
2018-05-04T20:11:44.366Z,16.28
2018-05-04T20:14:11.763Z,16.22
2018-05-04T20:16:40.116Z,16.18
2018-05-04T20:19:07.711Z,16.17
2018-05-04T20:21:35.115Z,16.16
2018-05-04T20:24:02.494Z,16.10
2018-05-04T20:26:29.886Z,16.09
2018-05-04T20:28:57.326Z,16.09
2018-05-04T20:31:24.667Z,16.06
2018-05-04T20:33:52.079Z,16.05
2018-05-04T20:36:19.475Z,16.02
2018-05-04T20:38:46.859Z,15.95
2018-05-04T20:41:14.250Z,15.93
2018-05-04T20:43:41.642Z,15.95
2018-05-04T20:46:09.037Z,15.90
2018-05-04T20:48:36.576Z,15.88
2018-05-04T20:51:03.963Z,15.88
2018-05-04T20:53:31.351Z,15.83
2018-05-04T20:55:58.734Z,15.80
2018-05-04T20:58:26.124Z,15.77
2018-05-04T21:00:53.514Z,15.78
2018-05-04T21:03:20.913Z,15.65
2018-05-04T21:05:48.310Z,15.66
2018-05-04T21:08:15.702Z,15.63
2018-05-04T21:10:43.103Z,15.54
2018-05-04T21:13:10.520Z,15.49
2018-05-04T21:15:37.920Z,15.54
2018-05-04T21:18:05.304Z,15.53
2018-05-04T21:20:32.761Z,15.41
2018-05-04T21:23:00.264Z,15.47
2018-05-04T21:25:27.651Z,15.34
2018-05-04T21:27:55.043Z,15.28
2018-05-04T21:30:22.447Z,15.23
2018-05-04T21:32:49.916Z,15.26
2018-05-04T21:35:17.303Z,15.24
2018-05-04T21:37:45.107Z,15.24
2018-05-04T21:40:12.496Z,15.27
2018-05-04T21:42:39.882Z,15.19
2018-05-04T21:45:07.271Z,15.21
2018-05-04T21:47:34.663Z,15.13
2018-05-04T21:50:02.047Z,15.06
2018-05-04T21:52:29.442Z,15.06
2018-05-04T21:54:56.834Z,15.05
2018-05-04T21:57:24.562Z,15.00
2018-05-04T21:59:51.956Z,14.98
2018-05-04T22:02:19.341Z,14.93
2018-05-04T22:04:46.790Z,14.95
2018-05-04T22:07:14.128Z,14.97
2018-05-04T22:09:41.542Z,14.95
2018-05-04T22:12:08.930Z,14.98
2018-05-04T22:14:36.318Z,14.93
2018-05-04T22:17:03.712Z,14.94
2018-05-04T22:19:31.339Z,14.91
2018-05-04T22:21:58.722Z,14.87
2018-05-04T22:24:26.130Z,14.93
2018-05-04T22:26:53.508Z,14.85
2018-05-04T22:29:20.899Z,14.83
2018-05-04T22:31:48.294Z,14.83
2018-05-04T22:34:15.691Z,14.80
2018-05-04T22:36:43.082Z,14.78
2018-05-04T22:39:10.462Z,14.73
2018-05-04T22:41:37.859Z,14.71
2018-05-04T22:44:05.243Z,14.72
2018-05-04T22:46:32.655Z,14.71
2018-05-04T22:49:00.045Z,14.73
2018-05-04T22:51:27.427Z,14.64
2018-05-04T22:53:54.820Z,14.62
2018-05-04T22:56:22.308Z,14.58
2018-05-04T22:58:49.694Z,14.56
2018-05-04T23:01:17.149Z,14.55
2018-05-04T23:03:44.539Z,14.48
2018-05-04T23:06:11.931Z,14.48
2018-05-04T23:08:39.319Z,14.47
2018-05-04T23:11:06.718Z,14.38
2018-05-04T23:13:34.103Z,14.37
2018-05-04T23:16:01.499Z,14.32
2018-05-04T23:18:28.894Z,14.37
2018-05-04T23:20:56.345Z,14.22
2018-05-04T23:23:23.682Z,14.19
2018-05-04T23:25:51.111Z,14.19
2018-05-04T23:28:18.507Z,14.16
2018-05-04T23:30:45.894Z,14.09
2018-05-04T23:33:13.277Z,14.08
2018-05-04T23:35:40.675Z,14.04
2018-05-04T23:38:08.058Z,14.02
2018-05-04T23:40:35.453Z,14.04
2018-05-04T23:43:02.846Z,14.00
2018-05-04T23:45:30.263Z,14.01
2018-05-04T23:47:57.652Z,13.97
2018-05-04T23:50:25.036Z,13.91
2018-05-04T23:52:52.435Z,13.88
2018-05-04T23:55:19.822Z,13.85
2018-05-04T23:57:47.229Z,13.86
